sensor_id;sensor_type;location;lat;lon;timestamp;temperature;humidity
25200;DHT22;33094;48.782;9.162;2023-08-17T00:00:27;21.60;99.90
25200;DHT22;33094;48.782;9.162;2023-08-17T00:02:53;21.60;99.90
25200;DHT22;33094;48.782;9.162;2023-08-17T00:05:20;21.50;99.90
25200;DHT22;33094;48.782;9.162;2023-08-17T00:07:46;21.50;99.90
25200;DHT22;33094;48.782;9.162;2023-08-17T00:10:11;21.50;99.90
25200;DHT22;33094;48.782;9.162;2023-08-17T00:12:37;21.50;99.90
25200;DHT22;33094;48.782;9.162;2023-08-17T00:15:04;21.30;99.90
25200;DHT22;33094;48.782;9.162;2023-08-17T00:17:30;21.10;99.90
25200;DHT22;33094;48.782;9.162;2023-08-17T00:19:56;21.00;99.90
25200;DHT22;33094;48.782;9.162;2023-08-17T00:22:23;21.10;99.90
25200;DHT22;33094;48.782;9.162;2023-08-17T00:24:48;21.30;99.90
25200;DHT22;33094;48.782;9.162;2023-08-17T00:27:14;21.40;99.90
25200;DHT22;33094;48.782;9.162;2023-08-17T00:29:42;21.50;99.90
25200;DHT22;33094;48.782;9.162;2023-08-17T00:32:08;21.60;99.90
25200;DHT22;33094;48.782;9.162;2023-08-17T00:34:34;21.60;99.90
25200;DHT22;33094;48.782;9.162;2023-08-17T00:36:59;21.50;99.90
25200;DHT22;33094;48.782;9.162;2023-08-17T00:39:25;21.30;99.90
25200;DHT22;33094;48.782;9.162;2023-08-17T00:41:57;21.20;99.90
25200;DHT22;33094;48.782;9.162;2023-08-17T00:44:23;21.30;99.90
25200;DHT22;33094;48.782;9.162;2023-08-17T00:46:49;21.30;99.90
25200;DHT22;33094;48.782;9.162;2023-08-17T00:49:17;21.20;99.90
25200;DHT22;33094;48.782;9.162;2023-08-17T00:51:43;21.10;99.90
25200;DHT22;33094;48.782;9.162;2023-08-17T00:54:11;21.30;99.90
25200;DHT22;33094;48.782;9.162;2023-08-17T00:56:37;21.50;99.90
25200;DHT22;33094;48.782;9.162;2023-08-17T01:19:46;21.70;99.90
25200;DHT22;33094;48.782;9.162;2023-08-17T01:22:16;21.90;99.90
25200;DHT22;33094;48.782;9.162;2023-08-17T01:24:46;21.80;99.90
25200;DHT22;33094;48.782;9.162;2023-08-17T01:27:14;21.70;99.90
25200;DHT22;33094;48.782;9.162;2023-08-17T01:29:40;21.60;99.90
25200;DHT22;33094;48.782;9.162;2023-08-17T01:38:30;21.60;99.90
25200;DHT22;33094;48.782;9.162;2023-08-17T01:40:58;21.70;99.90
25200;DHT22;33094;48.782;9.162;2023-08-17T01:43:26;21.80;99.90
25200;DHT22;33094;48.782;9.162;2023-08-17T01:45:55;21.90;99.90
25200;DHT22;33094;48.782;9.162;2023-08-17T01:48:21;21.80;99.90
25200;DHT22;33094;48.782;9.162;2023-08-17T01:50:47;21.90;99.90
25200;DHT22;33094;48.782;9.162;2023-08-17T01:53:12;21.80;99.90
25200;DHT22;33094;48.782;9.162;2023-08-17T01:55:39;21.90;99.90
25200;DHT22;33094;48.782;9.162;2023-08-17T01:58:04;22.00;99.90
25200;DHT22;33094;48.782;9.162;2023-08-17T02:00:30;21.80;99.90
25200;DHT22;33094;48.782;9.162;2023-08-17T02:02:56;21.90;99.90
25200;DHT22;33094;48.782;9.162;2023-08-17T02:05:21;21.90;99.90
25200;DHT22;33094;48.782;9.162;2023-08-17T02:07:47;21.80;99.90
25200;DHT22;33094;48.782;9.162;2023-08-17T02:10:13;21.70;99.90
25200;DHT22;33094;48.782;9.162;2023-08-17T02:12:49;21.50;99.90
25200;DHT22;33094;48.782;9.162;2023-08-17T02:15:26;21.20;99.90
25200;DHT22;33094;48.782;9.162;2023-08-17T02:17:52;21.20;99.90
25200;DHT22;33094;48.782;9.162;2023-08-17T02:20:18;21.30;99.90
25200;DHT22;33094;48.782;9.162;2023-08-17T02:22:44;21.40;99.90
25200;DHT22;33094;48.782;9.162;2023-08-17T02:25:09;21.50;99.90
25200;DHT22;33094;48.782;9.162;2023-08-17T02:27:35;21.50;99.90
25200;DHT22;33094;48.782;9.162;2023-08-17T02:30:03;21.40;99.90
25200;DHT22;33094;48.782;9.162;2023-08-17T02:32:29;21.40;99.90
25200;DHT22;33094;48.782;9.162;2023-08-17T02:35:12;21.30;99.90
25200;DHT22;33094;48.782;9.162;2023-08-17T02:37:39;21.10;99.90
25200;DHT22;33094;48.782;9.162;2023-08-17T02:40:28;21.20;99.90
25200;DHT22;33094;48.782;9.162;2023-08-17T02:42:56;21.30;99.90
25200;DHT22;33094;48.782;9.162;2023-08-17T02:45:22;21.40;99.90
25200;DHT22;33094;48.782;9.162;2023-08-17T02:50:25;21.10;99.90
25200;DHT22;33094;48.782;9.162;2023-08-17T02:52:51;21.20;99.90
25200;DHT22;33094;48.782;9.162;2023-08-17T02:55:19;21.20;99.90
25200;DHT22;33094;48.782;9.162;2023-08-17T02:57:54;21.20;99.90
25200;DHT22;33094;48.782;9.162;2023-08-17T03:00:27;21.40;99.90
25200;DHT22;33094;48.782;9.162;2023-08-17T03:02:54;21.50;99.90
25200;DHT22;33094;48.782;9.162;2023-08-17T03:05:22;21.40;99.90
25200;DHT22;33094;48.782;9.162;2023-08-17T03:07:51;21.20;99.90
25200;DHT22;33094;48.782;9.162;2023-08-17T03:10:20;21.20;99.90
25200;DHT22;33094;48.782;9.162;2023-08-17T03:12:45;21.40;99.90
25200;DHT22;33094;48.782;9.162;2023-08-17T05:21:08;21.80;99.90
25200;DHT22;33094;48.782;9.162;2023-08-17T05:23:34;21.90;99.90
25200;DHT22;33094;48.782;9.162;2023-08-17T05:26:00;21.90;99.90
25200;DHT22;33094;48.782;9.162;2023-08-17T05:28:26;21.90;99.90
25200;DHT22;33094;48.782;9.162;2023-08-17T05:30:52;21.90;99.90
25200;DHT22;33094;48.782;9.162;2023-08-17T05:33:19;21.90;99.90
25200;DHT22;33094;48.782;9.162;2023-08-17T05:35:44;21.90;99.90
25200;DHT22;33094;48.782;9.162;2023-08-17T05:38:10;21.70;99.90
25200;DHT22;33094;48.782;9.162;2023-08-17T05:40:36;21.80;99.90
25200;DHT22;33094;48.782;9.162;2023-08-17T05:43:02;22.00;99.90
25200;DHT22;33094;48.782;9.162;2023-08-17T05:45:27;22.10;99.90
25200;DHT22;33094;48.782;9.162;2023-08-17T05:47:53;22.20;99.90
25200;DHT22;33094;48.782;9.162;2023-08-17T05:50:19;22.20;99.90
25200;DHT22;33094;48.782;9.162;2023-08-17T05:52:48;22.20;99.90
25200;DHT22;33094;48.782;9.162;2023-08-17T05:55:13;22.10;99.90
25200;DHT22;33094;48.782;9.162;2023-08-17T06:00:14;21.60;99.90
25200;DHT22;33094;48.782;9.162;2023-08-17T06:02:41;21.60;99.90
25200;DHT22;33094;48.782;9.162;2023-08-17T06:05:09;21.70;99.90
25200;DHT22;33094;48.782;9.162;2023-08-17T06:07:39;21.80;99.90
25200;DHT22;33094;48.782;9.162;2023-08-17T06:10:05;21.80;99.90
25200;DHT22;33094;48.782;9.162;2023-08-17T06:12:31;22.10;99.90
25200;DHT22;33094;48.782;9.162;2023-08-17T06:14:57;22.40;99.90
25200;DHT22;33094;48.782;9.162;2023-08-17T06:17:22;22.30;99.90
25200;DHT22;33094;48.782;9.162;2023-08-17T06:19:48;22.20;99.90
25200;DHT22;33094;48.782;9.162;2023-08-17T06:22:14;22.40;99.90
25200;DHT22;33094;48.782;9.162;2023-08-17T06:24:39;22.30;99.90
25200;DHT22;33094;48.782;9.162;2023-08-17T06:27:05;22.50;99.90
25200;DHT22;33094;48.782;9.162;2023-08-17T06:29:31;22.60;99.90
25200;DHT22;33094;48.782;9.162;2023-08-17T06:31:59;22.50;99.90
25200;DHT22;33094;48.782;9.162;2023-08-17T06:34:24;22.20;99.90
25200;DHT22;33094;48.782;9.162;2023-08-17T06:36:58;22.20;99.90
25200;DHT22;33094;48.782;9.162;2023-08-17T06:39:24;22.40;99.90
25200;DHT22;33094;48.782;9.162;2023-08-17T06:41:49;22.60;99.90
25200;DHT22;33094;48.782;9.162;2023-08-17T06:44:16;22.70;99.90
25200;DHT22;33094;48.782;9.162;2023-08-17T06:46:41;22.60;99.90
25200;DHT22;33094;48.782;9.162;2023-08-17T06:51:42;22.90;99.90
25200;DHT22;33094;48.782;9.162;2023-08-17T06:54:09;23.00;99.90
25200;DHT22;33094;48.782;9.162;2023-08-17T06:56:35;23.00;99.90
25200;DHT22;33094;48.782;9.162;2023-08-17T06:59:02;23.10;99.90
25200;DHT22;33094;48.782;9.162;2023-08-17T07:01:28;23.10;99.90
25200;DHT22;33094;48.782;9.162;2023-08-17T07:03:55;23.20;99.90
25200;DHT22;33094;48.782;9.162;2023-08-17T07:06:24;23.30;99.90
25200;DHT22;33094;48.782;9.162;2023-08-17T07:08:49;23.50;99.90
25200;DHT22;33094;48.782;9.162;2023-08-17T07:14:02;23.70;99.90
25200;DHT22;33094;48.782;9.162;2023-08-17T07:19:03;23.90;99.90
25200;DHT22;33094;48.782;9.162;2023-08-17T07:21:29;23.60;99.90
25200;DHT22;33094;48.782;9.162;2023-08-17T07:23:55;23.90;99.90
25200;DHT22;33094;48.782;9.162;2023-08-17T07:26:23;24.10;99.90
25200;DHT22;33094;48.782;9.162;2023-08-17T07:28:49;23.90;99.90
25200;DHT22;33094;48.782;9.162;2023-08-17T07:31:15;24.10;99.90
25200;DHT22;33094;48.782;9.162;2023-08-17T07:34:04;24.20;99.90
25200;DHT22;33094;48.782;9.162;2023-08-17T07:36:50;24.20;99.90
25200;DHT22;33094;48.782;9.162;2023-08-17T07:39:15;24.30;99.90
25200;DHT22;33094;48.782;9.162;2023-08-17T07:41:41;24.20;99.90
25200;DHT22;33094;48.782;9.162;2023-08-17T07:44:06;24.20;99.90
25200;DHT22;33094;48.782;9.162;2023-08-17T07:46:32;24.00;99.90
25200;DHT22;33094;48.782;9.162;2023-08-17T07:48:58;24.00;99.90
25200;DHT22;33094;48.782;9.162;2023-08-17T07:51:24;24.00;99.90
25200;DHT22;33094;48.782;9.162;2023-08-17T07:53:49;23.90;99.90
25200;DHT22;33094;48.782;9.162;2023-08-17T07:56:15;24.00;99.90
25200;DHT22;33094;48.782;9.162;2023-08-17T07:58:40;24.10;99.90
25200;DHT22;33094;48.782;9.162;2023-08-17T08:01:06;24.20;99.90
25200;DHT22;33094;48.782;9.162;2023-08-17T08:03:34;24.40;99.90
25200;DHT22;33094;48.782;9.162;2023-08-17T08:06:00;24.60;99.90
25200;DHT22;33094;48.782;9.162;2023-08-17T08:08:32;24.70;99.90
25200;DHT22;33094;48.782;9.162;2023-08-17T08:10:58;24.70;99.90
25200;DHT22;33094;48.782;9.162;2023-08-17T08:13:30;24.60;99.90
25200;DHT22;33094;48.782;9.162;2023-08-17T08:16:17;24.90;99.90
25200;DHT22;33094;48.782;9.162;2023-08-17T08:18:44;25.40;99.90
25200;DHT22;33094;48.782;9.162;2023-08-17T08:21:20;26.00;99.90
25200;DHT22;33094;48.782;9.162;2023-08-17T08:24:30;26.60;99.90
25200;DHT22;33094;48.782;9.162;2023-08-17T08:27:07;26.90;99.90
25200;DHT22;33094;48.782;9.162;2023-08-17T08:29:33;26.70;99.90
25200;DHT22;33094;48.782;9.162;2023-08-17T08:31:59;27.50;99.90
25200;DHT22;33094;48.782;9.162;2023-08-17T08:34:28;28.50;99.90
25200;DHT22;33094;48.782;9.162;2023-08-17T08:37:04;29.10;99.90
25200;DHT22;33094;48.782;9.162;2023-08-17T08:39:30;29.50;99.90
25200;DHT22;33094;48.782;9.162;2023-08-17T08:41:55;30.30;99.90
25200;DHT22;33094;48.782;9.162;2023-08-17T08:44:22;30.90;99.90
25200;DHT22;33094;48.782;9.162;2023-08-17T08:46:47;31.10;99.30
25200;DHT22;33094;48.782;9.162;2023-08-17T08:49:19;30.90;99.00
25200;DHT22;33094;48.782;9.162;2023-08-17T08:51:49;31.20;98.90
25200;DHT22;33094;48.782;9.162;2023-08-17T08:54:20;32.10;98.30
25200;DHT22;33094;48.782;9.162;2023-08-17T08:57:01;32.00;97.60
25200;DHT22;33094;48.782;9.162;2023-08-17T08:59:27;32.80;97.10
25200;DHT22;33094;48.782;9.162;2023-08-17T09:01:55;32.90;96.50
25200;DHT22;33094;48.782;9.162;2023-08-17T09:04:22;33.20;96.00
25200;DHT22;33094;48.782;9.162;2023-08-17T09:06:48;33.90;95.50
25200;DHT22;33094;48.782;9.162;2023-08-17T09:09:16;34.20;95.20
25200;DHT22;33094;48.782;9.162;2023-08-17T09:11:42;33.90;95.20
25200;DHT22;33094;48.782;9.162;2023-08-17T09:14:08;33.80;95.10
25200;DHT22;33094;48.782;9.162;2023-08-17T09:16:34;33.30;95.30
25200;DHT22;33094;48.782;9.162;2023-08-17T09:19:00;33.10;95.60
25200;DHT22;33094;48.782;9.162;2023-08-17T09:21:26;33.30;95.40
25200;DHT22;33094;48.782;9.162;2023-08-17T09:23:55;33.10;95.30
25200;DHT22;33094;48.782;9.162;2023-08-17T09:26:22;32.00;96.80
25200;DHT22;33094;48.782;9.162;2023-08-17T09:28:51;32.70;95.90
25200;DHT22;33094;48.782;9.162;2023-08-17T09:31:20;33.20;95.80
25200;DHT22;33094;48.782;9.162;2023-08-17T09:33:50;33.10;95.70
25200;DHT22;33094;48.782;9.162;2023-08-17T09:36:24;34.00;94.50
25200;DHT22;33094;48.782;9.162;2023-08-17T09:38:53;32.40;95.60
25200;DHT22;33094;48.782;9.162;2023-08-17T09:41:19;31.70;96.80
25200;DHT22;33094;48.782;9.162;2023-08-17T09:43:45;31.30;96.90
25200;DHT22;33094;48.782;9.162;2023-08-17T09:46:11;32.20;96.60
25200;DHT22;33094;48.782;9.162;2023-08-17T09:48:37;32.90;95.80
25200;DHT22;33094;48.782;9.162;2023-08-17T09:51:02;33.30;95.70
25200;DHT22;33094;48.782;9.162;2023-08-17T09:53:28;33.90;95.30
25200;DHT22;33094;48.782;9.162;2023-08-17T09:55:54;34.00;94.70
25200;DHT22;33094;48.782;9.162;2023-08-17T09:58:25;33.00;95.10
25200;DHT22;33094;48.782;9.162;2023-08-17T10:00:50;32.30;96.20
25200;DHT22;33094;48.782;9.162;2023-08-17T10:03:18;32.70;96.20
25200;DHT22;33094;48.782;9.162;2023-08-17T10:05:47;32.20;96.00
25200;DHT22;33094;48.782;9.162;2023-08-17T10:08:19;32.00;96.70
25200;DHT22;33094;48.782;9.162;2023-08-17T10:10:47;32.30;96.40
25200;DHT22;33094;48.782;9.162;2023-08-17T10:19:15;29.90;98.40
25200;DHT22;33094;48.782;9.162;2023-08-17T10:21:50;30.20;98.70
25200;DHT22;33094;48.782;9.162;2023-08-17T10:24:19;31.50;97.70
25200;DHT22;33094;48.782;9.162;2023-08-17T10:26:45;32.10;97.20
25200;DHT22;33094;48.782;9.162;2023-08-17T10:29:11;33.10;96.20
25200;DHT22;33094;48.782;9.162;2023-08-17T10:31:38;32.60;96.00
25200;DHT22;33094;48.782;9.162;2023-08-17T10:34:04;31.40;96.90
25200;DHT22;33094;48.782;9.162;2023-08-17T10:36:34;32.30;96.60
25200;DHT22;33094;48.782;9.162;2023-08-17T10:39:28;32.80;96.40
25200;DHT22;33094;48.782;9.162;2023-08-17T10:41:54;33.40;95.70
25200;DHT22;33094;48.782;9.162;2023-08-17T10:44:48;33.90;95.00
25200;DHT22;33094;48.782;9.162;2023-08-17T10:47:30;33.90;95.00
25200;DHT22;33094;48.782;9.162;2023-08-17T10:50:38;34.80;94.30
25200;DHT22;33094;48.782;9.162;2023-08-17T10:52:56;35.20;93.90
25200;DHT22;33094;48.782;9.162;2023-08-17T10:55:38;35.00;93.80
25200;DHT22;33094;48.782;9.162;2023-08-17T10:58:05;34.80;94.00
25200;DHT22;33094;48.782;9.162;2023-08-17T11:00:38;34.50;94.50
25200;DHT22;33094;48.782;9.162;2023-08-17T11:08:07;34.40;94.40
25200;DHT22;33094;48.782;9.162;2023-08-17T11:10:35;34.80;94.00
25200;DHT22;33094;48.782;9.162;2023-08-17T11:13:01;34.90;93.90
25200;DHT22;33094;48.782;9.162;2023-08-17T11:15:42;35.10;93.40
25200;DHT22;33094;48.782;9.162;2023-08-17T11:18:09;35.60;93.30
25200;DHT22;33094;48.782;9.162;2023-08-17T11:20:36;35.70;93.00
25200;DHT22;33094;48.782;9.162;2023-08-17T11:23:07;34.30;93.30
25200;DHT22;33094;48.782;9.162;2023-08-17T11:25:33;33.90;94.40
25200;DHT22;33094;48.782;9.162;2023-08-17T11:28:00;34.20;93.80
25200;DHT22;33094;48.782;9.162;2023-08-17T11:30:27;33.50;94.10
25200;DHT22;33094;48.782;9.162;2023-08-17T11:32:54;32.30;95.50
25200;DHT22;33094;48.782;9.162;2023-08-17T11:35:21;32.50;96.20
25200;DHT22;33094;48.782;9.162;2023-08-17T11:37:48;32.90;95.10
25200;DHT22;33094;48.782;9.162;2023-08-17T11:40:14;33.10;94.50
25200;DHT22;33094;48.782;9.162;2023-08-17T11:42:40;33.10;94.80
25200;DHT22;33094;48.782;9.162;2023-08-17T11:45:07;34.10;94.30
25200;DHT22;33094;48.782;9.162;2023-08-17T11:47:40;35.00;93.60
25200;DHT22;33094;48.782;9.162;2023-08-17T11:50:08;35.60;92.70
25200;DHT22;33094;48.782;9.162;2023-08-17T11:52:34;35.70;92.30
25200;DHT22;33094;48.782;9.162;2023-08-17T11:55:05;34.90;92.50
25200;DHT22;33094;48.782;9.162;2023-08-17T11:57:35;34.70;93.20
25200;DHT22;33094;48.782;9.162;2023-08-17T12:00:02;34.00;93.40
25200;DHT22;33094;48.782;9.162;2023-08-17T12:02:30;33.90;93.60
25200;DHT22;33094;48.782;9.162;2023-08-17T12:04:56;34.20;93.10
25200;DHT22;33094;48.782;9.162;2023-08-17T12:07:24;32.80;93.70
25200;DHT22;33094;48.782;9.162;2023-08-17T12:09:50;32.30;94.70
25200;DHT22;33094;48.782;9.162;2023-08-17T12:12:22;32.10;94.60
25200;DHT22;33094;48.782;9.162;2023-08-17T12:14:48;31.80;94.80
25200;DHT22;33094;48.782;9.162;2023-08-17T12:17:14;31.70;94.80
25200;DHT22;33094;48.782;9.162;2023-08-17T12:19:42;31.70;95.10
25200;DHT22;33094;48.782;9.162;2023-08-17T12:22:07;31.10;95.70
25200;DHT22;33094;48.782;9.162;2023-08-17T12:24:33;30.80;96.60
25200;DHT22;33094;48.782;9.162;2023-08-17T12:27:03;30.80;96.80
25200;DHT22;33094;48.782;9.162;2023-08-17T12:29:29;30.70;97.20
25200;DHT22;33094;48.782;9.162;2023-08-17T12:31:57;30.40;97.70
25200;DHT22;33094;48.782;9.162;2023-08-17T12:34:23;30.10;98.00
25200;DHT22;33094;48.782;9.162;2023-08-17T12:36:49;30.10;98.50
25200;DHT22;33094;48.782;9.162;2023-08-17T12:39:15;30.00;98.80
25200;DHT22;33094;48.782;9.162;2023-08-17T12:41:41;29.90;99.10
25200;DHT22;33094;48.782;9.162;2023-08-17T12:44:08;29.80;99.40
25200;DHT22;33094;48.782;9.162;2023-08-17T12:46:34;29.80;99.40
25200;DHT22;33094;48.782;9.162;2023-08-17T12:49:00;29.60;99.30
25200;DHT22;33094;48.782;9.162;2023-08-17T12:51:26;29.40;99.50
25200;DHT22;33094;48.782;9.162;2023-08-17T12:53:52;29.20;99.90
25200;DHT22;33094;48.782;9.162;2023-08-17T12:56:17;29.10;99.90
25200;DHT22;33094;48.782;9.162;2023-08-17T12:58:43;29.00;99.90
25200;DHT22;33094;48.782;9.162;2023-08-17T13:01:08;28.90;99.90
25200;DHT22;33094;48.782;9.162;2023-08-17T13:03:34;28.60;99.90
25200;DHT22;33094;48.782;9.162;2023-08-17T13:06:00;28.00;99.90
25200;DHT22;33094;48.782;9.162;2023-08-17T13:08:26;27.90;99.90
25200;DHT22;33094;48.782;9.162;2023-08-17T13:10:51;27.90;99.90
25200;DHT22;33094;48.782;9.162;2023-08-17T13:13:17;27.90;99.90
25200;DHT22;33094;48.782;9.162;2023-08-17T13:15:42;27.80;99.90
25200;DHT22;33094;48.782;9.162;2023-08-17T13:18:08;27.80;99.90
25200;DHT22;33094;48.782;9.162;2023-08-17T13:20:33;27.60;99.90
25200;DHT22;33094;48.782;9.162;2023-08-17T13:22:59;27.50;99.90
25200;DHT22;33094;48.782;9.162;2023-08-17T13:25:25;27.40;99.90
25200;DHT22;33094;48.782;9.162;2023-08-17T13:27:51;26.90;99.90
25200;DHT22;33094;48.782;9.162;2023-08-17T13:30:16;26.70;99.90
25200;DHT22;33094;48.782;9.162;2023-08-17T13:32:42;26.60;99.90
25200;DHT22;33094;48.782;9.162;2023-08-17T13:35:08;26.60;99.90
25200;DHT22;33094;48.782;9.162;2023-08-17T13:37:36;26.50;99.90
25200;DHT22;33094;48.782;9.162;2023-08-17T13:40:03;26.40;99.90
25200;DHT22;33094;48.782;9.162;2023-08-17T13:42:29;26.30;99.90
25200;DHT22;33094;48.782;9.162;2023-08-17T13:44:55;25.70;99.90
25200;DHT22;33094;48.782;9.162;2023-08-17T13:47:20;25.40;99.90
25200;DHT22;33094;48.782;9.162;2023-08-17T13:49:46;24.80;99.90
25200;DHT22;33094;48.782;9.162;2023-08-17T13:52:11;24.60;99.90
25200;DHT22;33094;48.782;9.162;2023-08-17T13:54:37;24.60;99.90
25200;DHT22;33094;48.782;9.162;2023-08-17T13:57:03;24.60;99.90
25200;DHT22;33094;48.782;9.162;2023-08-17T13:59:29;24.80;99.90
25200;DHT22;33094;48.782;9.162;2023-08-17T14:01:55;24.90;99.90
25200;DHT22;33094;48.782;9.162;2023-08-17T14:04:22;24.70;99.90
25200;DHT22;33094;48.782;9.162;2023-08-17T14:06:48;24.50;99.90
25200;DHT22;33094;48.782;9.162;2023-08-17T14:09:14;24.60;99.90
25200;DHT22;33094;48.782;9.162;2023-08-17T14:11:40;24.80;99.90
25200;DHT22;33094;48.782;9.162;2023-08-17T14:14:09;24.90;99.90
25200;DHT22;33094;48.782;9.162;2023-08-17T14:16:35;24.70;99.90
25200;DHT22;33094;48.782;9.162;2023-08-17T14:19:01;24.60;99.90
25200;DHT22;33094;48.782;9.162;2023-08-17T14:21:28;24.90;99.90
25200;DHT22;33094;48.782;9.162;2023-08-17T14:23:55;25.10;99.90
25200;DHT22;33094;48.782;9.162;2023-08-17T14:26:22;25.20;99.90
25200;DHT22;33094;48.782;9.162;2023-08-17T14:28:47;25.30;99.90
25200;DHT22;33094;48.782;9.162;2023-08-17T14:31:13;25.20;99.90
25200;DHT22;33094;48.782;9.162;2023-08-17T14:33:43;25.10;99.90
25200;DHT22;33094;48.782;9.162;2023-08-17T14:36:08;25.10;99.90
25200;DHT22;33094;48.782;9.162;2023-08-17T14:38:35;25.30;99.90
25200;DHT22;33094;48.782;9.162;2023-08-17T14:41:01;25.30;99.90
25200;DHT22;33094;48.782;9.162;2023-08-17T14:43:30;25.40;99.90
25200;DHT22;33094;48.782;9.162;2023-08-17T14:45:55;25.50;99.90
25200;DHT22;33094;48.782;9.162;2023-08-17T14:48:21;25.60;99.90
25200;DHT22;33094;48.782;9.162;2023-08-17T14:50:46;25.70;99.90
25200;DHT22;33094;48.782;9.162;2023-08-17T14:53:12;25.80;99.90
25200;DHT22;33094;48.782;9.162;2023-08-17T14:55:38;25.70;99.90
25200;DHT22;33094;48.782;9.162;2023-08-17T14:58:03;25.80;99.90
25200;DHT22;33094;48.782;9.162;2023-08-17T15:00:29;25.90;99.90
25200;DHT22;33094;48.782;9.162;2023-08-17T15:02:57;25.90;99.90
25200;DHT22;33094;48.782;9.162;2023-08-17T15:05:26;25.80;99.90
25200;DHT22;33094;48.782;9.162;2023-08-17T15:07:52;26.00;99.90
25200;DHT22;33094;48.782;9.162;2023-08-17T15:10:17;25.90;99.90
25200;DHT22;33094;48.782;9.162;2023-08-17T15:12:44;25.70;99.90
25200;DHT22;33094;48.782;9.162;2023-08-17T15:15:10;25.90;99.90
25200;DHT22;33094;48.782;9.162;2023-08-17T15:17:36;26.00;99.90
25200;DHT22;33094;48.782;9.162;2023-08-17T15:20:02;26.00;99.90
25200;DHT22;33094;48.782;9.162;2023-08-17T15:22:28;26.10;99.90
25200;DHT22;33094;48.782;9.162;2023-08-17T15:24:54;25.80;99.90
25200;DHT22;33094;48.782;9.162;2023-08-17T15:27:19;25.70;99.90
25200;DHT22;33094;48.782;9.162;2023-08-17T15:29:45;25.50;99.90
25200;DHT22;33094;48.782;9.162;2023-08-17T15:32:11;25.30;99.90
25200;DHT22;33094;48.782;9.162;2023-08-17T15:34:37;25.30;99.90
25200;DHT22;33094;48.782;9.162;2023-08-17T15:37:02;25.20;99.90
25200;DHT22;33094;48.782;9.162;2023-08-17T15:39:28;25.10;99.90
25200;DHT22;33094;48.782;9.162;2023-08-17T15:41:55;25.30;99.90
25200;DHT22;33094;48.782;9.162;2023-08-17T15:44:21;25.70;99.90
25200;DHT22;33094;48.782;9.162;2023-08-17T15:46:46;26.10;99.90
25200;DHT22;33094;48.782;9.162;2023-08-17T15:49:12;26.20;99.90
25200;DHT22;33094;48.782;9.162;2023-08-17T15:51:39;26.30;99.90
25200;DHT22;33094;48.782;9.162;2023-08-17T15:54:06;26.50;99.90
25200;DHT22;33094;48.782;9.162;2023-08-17T15:56:32;26.40;99.90
25200;DHT22;33094;48.782;9.162;2023-08-17T15:58:57;26.50;99.90
25200;DHT22;33094;48.782;9.162;2023-08-17T16:01:23;26.60;99.90
25200;DHT22;33094;48.782;9.162;2023-08-17T16:03:49;26.70;99.90
25200;DHT22;33094;48.782;9.162;2023-08-17T16:06:14;26.50;99.90
25200;DHT22;33094;48.782;9.162;2023-08-17T16:08:41;26.50;99.90
25200;DHT22;33094;48.782;9.162;2023-08-17T16:11:07;26.60;99.90
25200;DHT22;33094;48.782;9.162;2023-08-17T16:13:33;26.40;99.90
25200;DHT22;33094;48.782;9.162;2023-08-17T16:15:58;26.50;99.90
25200;DHT22;33094;48.782;9.162;2023-08-17T16:18:24;26.50;99.90
25200;DHT22;33094;48.782;9.162;2023-08-17T16:20:50;26.50;99.90
25200;DHT22;33094;48.782;9.162;2023-08-17T16:23:16;26.60;99.90
25200;DHT22;33094;48.782;9.162;2023-08-17T16:25:42;26.70;99.90
25200;DHT22;33094;48.782;9.162;2023-08-17T16:28:08;26.70;99.90
25200;DHT22;33094;48.782;9.162;2023-08-17T16:30:33;26.60;99.90
25200;DHT22;33094;48.782;9.162;2023-08-17T16:33:01;26.70;99.90
25200;DHT22;33094;48.782;9.162;2023-08-17T16:35:26;26.70;99.90
25200;DHT22;33094;48.782;9.162;2023-08-17T16:38:28;26.60;99.90
25200;DHT22;33094;48.782;9.162;2023-08-17T16:41:19;26.50;99.90
25200;DHT22;33094;48.782;9.162;2023-08-17T16:43:45;26.50;99.90
25200;DHT22;33094;48.782;9.162;2023-08-17T16:46:10;26.50;99.90
25200;DHT22;33094;48.782;9.162;2023-08-17T16:48:36;26.60;99.90
25200;DHT22;33094;48.782;9.162;2023-08-17T16:51:02;26.70;99.90
25200;DHT22;33094;48.782;9.162;2023-08-17T16:53:27;26.70;99.90
25200;DHT22;33094;48.782;9.162;2023-08-17T16:55:53;26.80;99.90
25200;DHT22;33094;48.782;9.162;2023-08-17T16:58:18;26.70;99.90
25200;DHT22;33094;48.782;9.162;2023-08-17T17:00:44;26.80;99.90
25200;DHT22;33094;48.782;9.162;2023-08-17T17:03:10;26.80;99.90
25200;DHT22;33094;48.782;9.162;2023-08-17T17:05:37;26.80;99.90
25200;DHT22;33094;48.782;9.162;2023-08-17T17:08:02;26.80;99.90
25200;DHT22;33094;48.782;9.162;2023-08-17T17:10:30;26.70;99.90
25200;DHT22;33094;48.782;9.162;2023-08-17T17:12:55;26.60;99.90
25200;DHT22;33094;48.782;9.162;2023-08-17T17:15:21;26.70;99.90
25200;DHT22;33094;48.782;9.162;2023-08-17T17:17:47;26.60;99.90
25200;DHT22;33094;48.782;9.162;2023-08-17T17:20:12;26.60;99.90
25200;DHT22;33094;48.782;9.162;2023-08-17T17:22:38;26.70;99.90
25200;DHT22;33094;48.782;9.162;2023-08-17T17:25:04;26.80;99.90
25200;DHT22;33094;48.782;9.162;2023-08-17T17:27:30;26.90;99.90
25200;DHT22;33094;48.782;9.162;2023-08-17T17:29:56;26.80;99.90
25200;DHT22;33094;48.782;9.162;2023-08-17T17:32:21;26.80;99.90
25200;DHT22;33094;48.782;9.162;2023-08-17T17:34:47;26.70;99.90
25200;DHT22;33094;48.782;9.162;2023-08-17T17:37:13;26.60;99.90
25200;DHT22;33094;48.782;9.162;2023-08-17T17:39:38;26.60;99.90
25200;DHT22;33094;48.782;9.162;2023-08-17T17:42:04;26.60;99.90
25200;DHT22;33094;48.782;9.162;2023-08-17T17:44:29;26.60;99.90
25200;DHT22;33094;48.782;9.162;2023-08-17T17:46:55;26.50;99.90
25200;DHT22;33094;48.782;9.162;2023-08-17T17:49:21;26.40;99.90
25200;DHT22;33094;48.782;9.162;2023-08-17T17:51:46;26.30;99.90
25200;DHT22;33094;48.782;9.162;2023-08-17T17:54:12;26.30;99.90
25200;DHT22;33094;48.782;9.162;2023-08-17T17:56:44;26.40;99.90
25200;DHT22;33094;48.782;9.162;2023-08-17T17:59:10;26.30;99.90
25200;DHT22;33094;48.782;9.162;2023-08-17T18:01:36;26.20;99.90
25200;DHT22;33094;48.782;9.162;2023-08-17T18:04:02;26.20;99.90
25200;DHT22;33094;48.782;9.162;2023-08-17T18:06:27;26.10;99.90
25200;DHT22;33094;48.782;9.162;2023-08-17T18:08:53;26.10;99.90
25200;DHT22;33094;48.782;9.162;2023-08-17T18:11:19;26.00;99.90
25200;DHT22;33094;48.782;9.162;2023-08-17T18:13:45;26.00;99.90
25200;DHT22;33094;48.782;9.162;2023-08-17T18:16:10;25.80;99.90
25200;DHT22;33094;48.782;9.162;2023-08-17T18:18:36;25.70;99.90
25200;DHT22;33094;48.782;9.162;2023-08-17T18:21:05;25.80;99.90
25200;DHT22;33094;48.782;9.162;2023-08-17T18:23:33;25.80;99.90
25200;DHT22;33094;48.782;9.162;2023-08-17T18:25:59;25.80;99.90
25200;DHT22;33094;48.782;9.162;2023-08-17T18:28:24;25.80;99.90